Time;durP1;ratioP1;P1;durP2;ratioP2;P2;SDS_P1;SDS_P2;PMS_P1;PMS_P2;Temp;Humidity;BMP_temperature;BMP_pressure;BME280_temperature;BME280_humidity;BME280_pressure;Samples;Min_cycle;Max_cycle;Signal;HPM_P1;HPM_P2
2023/12/27 04:20:20;;;;;;;16.60;6.63;;;-0.40;99.90;;;;;;4938702;29;20035;-96
2023/12/27 09:06:28;;;;;;;27.20;13.63;;;2.90;99.90;;;;;;4914945;29;20067;-86
2023/12/27 09:08:56;;;;;;;24.87;12.37;;;3.70;99.90;;;;;;4898909;29;20492;-86
2023/12/27 09:15:14;;;;;;;27.07;13.50;;;3.40;99.90;;;;;;4915966;29;20047;-86
2023/12/27 09:17:42;;;;;;;29.93;13.90;;;3.60;99.90;;;;;;4899598;29;20512;-85
2023/12/27 09:20:13;;;;;;;27.23;12.87;;;3.70;99.90;;;;;;4898207;29;20127;-86
2023/12/27 09:23:48;;;;;;;24.80;13.10;;;5.00;99.90;;;;;;4903444;23;20108;-86
2023/12/27 09:26:14;;;;;;;31.83;13.03;;;3.90;99.90;;;;;;4879352;29;20557;-85
2023/12/27 09:28:45;;;;;;;30.90;12.40;;;3.60;99.90;;;;;;4880831;29;20053;-86
2023/12/27 09:31:17;;;;;;;27.73;14.10;;;4.20;99.90;;;;;;4880310;29;20102;-86
2023/12/27 09:33:45;;;;;;;24.77;12.93;;;3.20;99.90;;;;;;4882264;29;20052;-87
2023/12/27 09:36:34;;;;;;;25.23;13.37;;;3.50;99.90;;;;;;4901483;29;20108;-85
2023/12/27 09:38:59;;;;;;;31.80;12.67;;;4.10;99.90;;;;;;4884718;29;20045;-85
2023/12/27 09:41:33;;;;;;;27.63;11.10;;;5.00;99.90;;;;;;4881315;29;20052;-86
2023/12/27 09:44:24;;;;;;;29.42;11.32;;;3.80;99.90;;;;;;4897306;29;20052;-86
2023/12/27 09:46:50;;;;;;;23.13;11.90;;;5.00;99.90;;;;;;4936065;23;20052;-86
2023/12/27 09:49:41;;;;;;;25.23;11.33;;;5.50;99.90;;;;;;4903310;23;20079;-86
2023/12/27 09:52:28;;;;;;;28.13;12.13;;;3.40;99.90;;;;;;4919672;29;20054;-86
2023/12/27 09:54:56;;;;;;;25.20;11.00;;;4.50;99.90;;;;;;4901434;29;20051;-86
2023/12/27 09:57:29;;;;;;;23.93;11.37;;;4.20;99.90;;;;;;4903984;29;20400;-86
2023/12/27 09:59:59;;;;;;;29.63;13.53;;;6.00;99.90;;;;;;4902954;29;20048;-86
2023/12/27 10:05:26;;;;;;;26.17;11.47;;;6.00;99.90;;;;;;5028250;23;20059;-86
2023/12/27 10:07:53;;;;;;;25.10;11.67;;;4.00;99.90;;;;;;4938074;23;20112;-86
2023/12/27 10:13:55;;;;;;;24.03;11.37;;;4.30;99.90;;;;;;4901140;29;20060;-86
2023/12/27 10:16:24;;;;;;;27.07;11.47;;;4.00;99.90;;;;;;4900128;29;20083;-86
2023/12/27 10:18:52;;;;;;;24.03;10.73;;;4.50;99.90;;;;;;4901739;29;20080;-86
2023/12/27 10:21:24;;;;;;;25.33;10.97;;;4.40;99.90;;;;;;4901810;29;20377;-86
2023/12/27 10:24:24;;;;;;;25.83;11.27;;;4.50;99.90;;;;;;4904005;23;20049;-86
2023/12/27 10:27:06;;;;;;;27.80;12.10;;;4.80;99.90;;;;;;4883283;29;20139;-86
2023/12/27 10:29:35;;;;;;;23.87;10.27;;;5.60;99.90;;;;;;4882577;29;20144;-86
2023/12/27 10:32:07;;;;;;;24.43;10.50;;;4.60;99.90;;;;;;4898785;29;20048;-86
2023/12/27 10:34:37;;;;;;;22.73;10.50;;;4.60;99.90;;;;;;4885559;29;20139;-86
2023/12/27 10:37:12;;;;;;;21.37;10.50;;;6.20;99.90;;;;;;4882549;29;20052;-86
2023/12/27 10:40:10;;;;;;;23.83;10.53;;;4.70;99.90;;;;;;4882916;29;20060;-86
2023/12/27 10:42:35;;;;;;;29.60;11.23;;;4.60;99.90;;;;;;4856009;29;20060;-86
2023/12/27 10:45:05;;;;;;;21.53;10.90;;;4.30;99.90;;;;;;4950869;23;20060;-86
2023/12/27 10:47:37;;;;;;;23.20;9.90;;;4.80;99.90;;;;;;4901034;29;20048;-86
2023/12/27 10:56:38;;;;;;;22.47;10.07;;;3.90;99.90;;;;;;4900886;29;20059;-85
2023/12/27 10:59:09;;;;;;;21.38;11.43;;;4.80;99.90;;;;;;4906795;23;20049;-86
2023/12/27 11:01:39;;;;;;;25.87;11.20;;;4.70;99.90;;;;;;4954138;23;20136;-86
2023/12/27 11:09:14;;;;;;;24.73;11.27;;;4.00;99.90;;;;;;4862496;29;20060;-86
2023/12/27 11:11:47;;;;;;;23.73;9.57;;;3.10;99.90;;;;;;4862073;29;20071;-86
2023/12/27 11:16:54;;;;;;;26.10;9.53;;;4.70;99.90;;;;;;5109028;23;20481;-86
2023/12/27 11:22:26;;;;;;;21.97;9.97;;;6.60;99.90;;;;;;4900149;29;20052;-86
2023/12/27 11:24:51;;;;;;;;;;;4.20;99.90;;;;;;4901229;29;20044;-86
2023/12/27 11:27:19;;;;;;;24.50;10.53;;;4.80;99.90;;;;;;4916400;29;19927;-86
2023/12/27 11:30:08;;;;;;;23.80;10.40;;;4.20;99.90;;;;;;4900626;29;20044;-86
2023/12/27 11:32:44;;;;;;;27.70;11.10;;;4.70;99.90;;;;;;4900674;29;20048;-86
2023/12/27 11:35:30;;;;;;;25.13;9.67;;;5.50;99.90;;;;;;4900471;29;20102;-86
2023/12/27 11:41:01;;;;;;;27.17;10.63;;;4.70;99.90;;;;;;4898706;29;20055;-86
2023/12/27 11:44:03;;;;;;;24.23;10.77;;;6.10;99.90;;;;;;4901117;29;20083;-86
2023/12/27 11:46:34;;;;;;;23.73;9.53;;;5.40;99.90;;;;;;4900928;29;20104;-86
2023/12/27 11:49:00;;;;;;;33.27;10.50;;;4.70;99.90;;;;;;4901336;29;20090;-86
2023/12/27 11:51:40;;;;;;;24.97;10.40;;;4.70;99.90;;;;;;4900513;29;20036;-87
2023/12/27 11:54:40;;;;;;;23.30;10.33;;;6.30;99.90;;;;;;4899717;29;20056;-86
2023/12/27 12:00:19;;;;;;;26.10;10.27;;;4.90;99.90;;;;;;4915330;27;20076;-87
2023/12/27 12:03:35;;;;;;;22.27;10.80;;;5.20;99.90;;;;;;4900578;29;20052;-87
2023/12/27 12:06:57;;;;;;;29.27;10.23;;;5.90;99.90;;;;;;4899894;29;20056;-87
2023/12/27 12:09:51;;;;;;;31.20;11.77;;;5.10;99.90;;;;;;4915414;23;20103;-87
2023/12/27 12:21:38;;;;;;;24.03;10.23;;;5.10;99.90;;;;;;5359300;23;20056;-86
2023/12/27 12:24:10;;;;;;;21.70;10.40;;;6.10;99.90;;;;;;4899982;29;20058;-86
2023/12/27 12:26:56;;;;;;;23.23;9.80;;;5.40;99.90;;;;;;4900408;29;20408;-86
2023/12/27 12:30:20;;;;;;;21.80;10.30;;;5.70;99.90;;;;;;4888081;29;20063;-86
2023/12/27 12:32:54;;;;;;;22.80;9.97;;;5.20;99.90;;;;;;4917404;29;20112;-89
2023/12/27 12:45:37;;;;;;;28.30;11.90;;;6.90;99.90;;;;;;4843222;29;20491;-87
2023/12/27 12:52:08;;;;;;;30.33;12.50;;;5.70;99.90;;;;;;4842300;29;20056;-87
2023/12/27 12:58:19;;;;;;;27.80;12.97;;;6.00;99.90;;;;;;4855385;29;19924;-87
2023/12/27 13:01:34;;;;;;;;;;;;;;;;;;;;;
2023/12/27 13:05:02;;;;;;;;;;;;;;;;;;;;;
2023/12/27 13:08:14;;;;;;;29.57;13.93;;;5.10;99.90;;;;;;4847564;29;20122;-87
2023/12/27 13:11:21;;;;;;;;;;;;;;;;;;;;;
2023/12/27 13:14:27;;;;;;;29.60;13.30;;;6.20;99.90;;;;;;4891257;23;20056;-88
2023/12/27 13:17:11;;;;;;;27.50;13.30;;;5.70;99.90;;;;;;4897254;29;20932;-86
2023/12/27 13:19:37;;;;;;;33.30;13.93;;;6.30;99.90;;;;;;4897621;29;20046;-86
2023/12/27 13:22:10;;;;;;;27.97;12.63;;;5.80;99.90;;;;;;4898521;29;20296;-86
2023/12/27 13:24:42;;;;;;;26.00;11.87;;;5.50;99.90;;;;;;4901642;29;20059;-85
2023/12/27 13:27:26;;;;;;;25.20;11.70;;;5.60;99.90;;;;;;4902221;29;20052;-90
2023/12/27 13:29:52;;;;;;;26.20;11.93;;;5.90;99.90;;;;;;4903480;29;20055;-87
2023/12/27 13:32:45;;;;;;;24.30;10.57;;;6.00;99.90;;;;;;4901934;29;20062;-87
2023/12/27 13:35:31;;;;;;;22.53;10.50;;;5.20;99.90;;;;;;4899612;29;20520;-86
2023/12/27 13:38:18;;;;;;;24.00;10.23;;;7.00;99.90;;;;;;4899761;29;20056;-87
2023/12/27 13:40:55;;;;;;;23.77;10.73;;;5.20;99.90;;;;;;4902115;29;20438;-87
2023/12/27 13:43:59;;;;;;;21.73;10.13;;;5.90;99.90;;;;;;4901609;29;20048;-88
2023/12/27 13:46:26;;;;;;;27.00;10.30;;;7.20;99.90;;;;;;4826093;29;20450;-86
2023/12/27 13:48:58;;;;;;;26.20;10.70;;;7.80;99.90;;;;;;4825665;29;20175;-86
2023/12/27 13:51:24;;;;;;;25.57;10.33;;;6.40;99.90;;;;;;4826278;29;20061;-87
2023/12/27 13:53:55;;;;;;;23.23;9.87;;;7.00;99.90;;;;;;4824353;29;20074;-87
2023/12/27 13:56:21;;;;;;;25.17;10.60;;;7.80;99.90;;;;;;4827373;29;20065;-87
2023/12/27 13:58:51;;;;;;;19.87;9.30;;;6.20;99.90;;;;;;4826991;29;20053;-87
2023/12/27 14:01:37;;;;;;;19.50;9.97;;;6.00;99.90;;;;;;4826209;29;20069;-87
2023/12/27 14:04:06;;;;;;;24.23;10.20;;;7.80;99.90;;;;;;4886815;29;20529;-87
2023/12/27 14:06:44;;;;;;;22.13;9.77;;;6.00;99.90;;;;;;4917216;29;20051;-87
2023/12/27 14:09:14;;;;;;;21.43;9.83;;;6.50;99.90;;;;;;4912239;29;20059;-87
2023/12/27 14:11:44;;;;;;;19.37;9.07;;;7.20;99.90;;;;;;4900316;29;20120;-87
2023/12/27 14:14:57;;;;;;;21.23;8.93;;;6.40;99.90;;;;;;4903134;23;20083;-88
2023/12/27 14:17:52;;;;;;;20.17;9.10;;;6.70;99.90;;;;;;4898281;29;20128;-87
2023/12/27 14:20:36;;;;;;;22.27;9.37;;;5.70;99.90;;;;;;4901869;29;20811;-87
2023/12/27 14:23:13;;;;;;;20.63;9.33;;;7.80;99.90;;;;;;4916995;29;20052;-87
2023/12/27 14:26:20;;;;;;;22.43;9.57;;;7.90;99.90;;;;;;4901179;29;20496;-87
2023/12/27 14:28:49;;;;;;;23.70;8.90;;;6.50;99.90;;;;;;4896865;29;20048;-86
2023/12/27 14:31:49;;;;;;;20.43;8.37;;;7.40;99.90;;;;;;4903837;23;20561;-86
2023/12/27 14:34:23;;;;;;;20.53;8.70;;;5.80;99.90;;;;;;4916590;29;20366;-87
2023/12/27 14:37:08;;;;;;;19.70;8.43;;;6.40;99.90;;;;;;4895702;29;20049;-87
2023/12/27 14:39:36;;;;;;;21.33;9.30;;;6.50;99.90;;;;;;4898727;29;20059;-86
2023/12/27 14:42:03;;;;;;;19.47;8.33;;;8.10;99.90;;;;;;4899610;29;20051;-86
2023/12/27 14:44:54;;;;;;;19.00;8.43;;;6.20;99.90;;;;;;4901629;29;20091;-87
2023/12/27 14:47:23;;;;;;;20.77;8.30;;;5.90;99.90;;;;;;4826506;29;20080;-87
2023/12/27 14:50:26;;;;;;;19.87;8.37;;;6.50;99.90;;;;;;4825274;29;20655;-86
2023/12/27 14:56:25;;;;;;;19.63;8.80;;;6.70;99.90;;;;;;4806647;29;20102;-87
2023/12/27 14:59:09;;;;;;;20.47;8.13;;;6.70;99.90;;;;;;4825570;29;20050;-87
2023/12/27 15:02:19;;;;;;;18.15;7.82;;;8.30;99.90;;;;;;4824620;29;20071;-87
2023/12/27 15:08:19;;;;;;;18.92;8.25;;;6.20;99.90;;;;;;4903232;23;21089;-86
2023/12/27 15:10:48;;;;;;;17.67;7.90;;;6.20;99.90;;;;;;4883562;29;20513;-87
2023/12/27 15:13:14;;;;;;;15.90;7.70;;;6.80;99.90;;;;;;4883112;29;20044;-87
2023/12/27 15:15:40;;;;;;;16.67;7.80;;;7.40;99.90;;;;;;4884968;29;20204;-87
2023/12/27 15:18:13;;;;;;;19.10;7.30;;;5.90;99.90;;;;;;4888289;29;20180;-89
2023/12/27 15:23:38;;;;;;;16.43;7.37;;;7.00;99.90;;;;;;4923823;23;20052;-87
2023/12/27 15:26:27;;;;;;;17.07;7.40;;;6.70;99.90;;;;;;4904317;23;20056;-89
2023/12/27 15:28:55;;;;;;;17.70;7.47;;;7.10;99.90;;;;;;4896763;29;20051;-90
2023/12/27 15:38:07;;;;;;;17.80;7.37;;;6.50;99.90;;;;;;4805679;29;20054;-90
2023/12/27 15:40:48;;;;;;;16.57;6.73;;;6.90;99.90;;;;;;4813273;29;20523;-89
2023/12/27 15:46:25;;;;;;;18.10;7.50;;;7.00;99.90;;;;;;4804920;29;20092;-90
2023/12/27 15:52:46;;;;;;;17.97;7.20;;;7.30;99.90;;;;;;4880661;29;20520;-90
2023/12/27 15:55:15;;;;;;;15.53;7.03;;;8.50;99.90;;;;;;4880076;29;20041;-86
2023/12/27 15:57:40;;;;;;;15.73;7.43;;;8.30;99.90;;;;;;4893687;29;20097;-87
2023/12/27 16:00:07;;;;;;;18.13;7.00;;;7.20;99.90;;;;;;4878817;29;20048;-85
2023/12/27 16:02:32;;;;;;;16.00;7.30;;;7.20;99.90;;;;;;4880691;29;20140;-86
2023/12/27 16:04:58;;;;;;;15.93;7.50;;;8.70;99.90;;;;;;4897559;29;20477;-85
2023/12/27 16:07:24;;;;;;;16.20;6.93;;;7.20;99.90;;;;;;4880166;29;20041;-86
2023/12/27 16:09:50;;;;;;;15.23;6.53;;;7.20;99.90;;;;;;4897871;29;20044;-86
2023/12/27 16:12:16;;;;;;;14.80;6.60;;;8.40;99.90;;;;;;4880840;29;20405;-86
2023/12/27 16:14:42;;;;;;;15.83;6.50;;;7.30;99.90;;;;;;4877595;29;20080;-85
2023/12/27 16:17:08;;;;;;;12.87;5.87;;;7.30;99.90;;;;;;4880635;29;20048;-86
2023/12/27 16:19:35;;;;;;;16.20;6.83;;;7.80;99.90;;;;;;4880998;29;20048;-87
2023/12/27 16:22:01;;;;;;;16.97;6.93;;;7.30;99.90;;;;;;4877994;29;20055;-87
2023/12/27 16:24:27;;;;;;;15.43;6.10;;;7.30;99.90;;;;;;4881223;29;20041;-86
2023/12/27 16:26:52;;;;;;;14.90;6.30;;;7.30;99.90;;;;;;4880747;29;20072;-87
2023/12/27 16:29:19;;;;;;;13.90;6.47;;;7.60;99.90;;;;;;4880836;29;20064;-87
2023/12/27 16:31:44;;;;;;;13.37;5.80;;;8.80;99.90;;;;;;4881339;29;20123;-87
2023/12/27 16:34:10;;;;;;;15.47;6.17;;;7.30;99.90;;;;;;4881214;29;20197;-88
2023/12/27 16:36:36;;;;;;;15.13;5.73;;;7.40;99.90;;;;;;4880344;29;20048;-87
2023/12/27 16:39:02;;;;;;;12.57;5.70;;;7.40;99.90;;;;;;4897873;29;20044;-88
2023/12/27 16:41:36;;;;;;;13.07;5.17;;;8.50;99.90;;;;;;4882801;29;20458;-88
2023/12/27 16:44:02;;;;;;;13.47;5.17;;;7.40;99.90;;;;;;4882067;29;20048;-87
2023/12/27 16:46:41;;;;;;;14.30;4.80;;;7.30;99.90;;;;;;4899104;29;20378;-88
2023/12/27 16:49:07;;;;;;;13.37;4.83;;;8.90;99.90;;;;;;4892803;29;20155;-90
2023/12/27 16:51:33;;;;;;;18.83;6.10;;;8.80;99.90;;;;;;4880940;29;20053;-90
2023/12/27 16:53:58;;;;;;;14.33;4.93;;;7.40;99.90;;;;;;4882865;29;20040;-90
2023/12/27 16:56:30;;;;;;;14.23;4.73;;;7.80;99.90;;;;;;4880691;29;20048;-89
2023/12/27 16:58:56;;;;;;;13.20;4.53;;;9.20;99.90;;;;;;4885517;29;20041;-91
2023/12/27 17:01:21;;;;;;;10.87;4.40;;;7.40;99.90;;;;;;4888628;29;20049;-90
2023/12/27 17:03:47;;;;;;;12.93;4.40;;;8.80;99.90;;;;;;4886876;29;20079;-90
2023/12/27 17:06:13;;;;;;;12.20;4.20;;;7.50;99.90;;;;;;4885519;29;20076;-90
2023/12/27 17:08:38;;;;;;;11.37;4.17;;;8.50;99.90;;;;;;4886990;29;20045;-90
2023/12/27 17:11:04;;;;;;;12.53;4.07;;;7.70;99.90;;;;;;4885672;29;20076;-89
2023/12/27 17:13:30;;;;;;;11.33;4.50;;;8.40;99.90;;;;;;4886705;29;20409;-89
2023/12/27 17:15:56;;;;;;;12.53;4.17;;;7.70;99.90;;;;;;4886222;29;20048;-90
2023/12/27 17:18:22;;;;;;;13.70;4.50;;;8.50;99.90;;;;;;4885833;29;20055;-90
2023/12/27 17:20:47;;;;;;;14.30;4.40;;;8.80;99.90;;;;;;4884259;29;20036;-89
2023/12/27 17:23:13;;;;;;;12.40;4.20;;;7.40;99.90;;;;;;4886179;29;20561;-90
2023/12/27 17:25:40;;;;;;;11.97;4.80;;;8.30;99.90;;;;;;4885642;29;20204;-90
2023/12/27 17:28:06;;;;;;;12.77;4.30;;;8.50;99.90;;;;;;4886298;29;20048;-89
2023/12/27 17:30:32;;;;;;;14.17;4.70;;;7.60;99.90;;;;;;4884630;29;20045;-89
2023/12/27 17:33:15;;;;;;;13.57;4.40;;;7.40;99.90;;;;;;4877911;29;20063;-89
2023/12/27 17:35:44;;;;;;;14.88;5.13;;;7.40;99.90;;;;;;4899937;29;20050;-90
2023/12/27 17:38:20;;;;;;;;;;;;;;;;;;;;;
2023/12/27 17:41:13;;;;;;;12.23;4.47;;;8.80;99.90;;;;;;4879064;29;20082;-91
2023/12/27 17:43:56;;;;;;;12.57;4.80;;;7.30;99.90;;;;;;4899850;29;20180;-90
2023/12/27 17:46:22;;;;;;;10.43;4.20;;;8.20;99.90;;;;;;4901277;29;20052;-89
2023/12/27 17:48:54;;;;;;;14.03;5.40;;;6.90;99.90;;;;;;4892857;29;20056;-89
2023/12/27 17:51:19;;;;;;;14.07;5.00;;;7.40;99.90;;;;;;4878229;29;20466;-89
2023/12/27 17:53:54;;;;;;;13.37;4.73;;;8.00;99.90;;;;;;4882328;29;20087;-88
2023/12/27 17:56:31;;;;;;;15.80;5.70;;;8.90;99.90;;;;;;4881980;29;20052;-89
2023/12/27 17:58:57;;;;;;;12.57;4.80;;;8.70;99.90;;;;;;4882550;29;20104;-88
2023/12/27 18:01:25;;;;;;;16.07;5.17;;;7.00;99.90;;;;;;4883006;29;20429;-89
2023/12/27 18:03:54;;;;;;;14.07;4.90;;;7.30;99.90;;;;;;4883563;29;20060;-89
2023/12/27 18:06:20;;;;;;;12.93;4.90;;;8.00;99.90;;;;;;4883864;29;20037;-90
2023/12/27 18:08:53;;;;;;;11.60;4.73;;;7.70;99.90;;;;;;4882994;29;20049;-88
2023/12/27 18:11:37;;;;;;;12.50;4.78;;;7.40;99.90;;;;;;4882250;29;20346;-89
2023/12/27 18:14:03;;;;;;;11.00;4.40;;;8.80;99.90;;;;;;4883950;29;20505;-89
2023/12/27 18:16:31;;;;;;;13.10;4.50;;;7.30;99.90;;;;;;4880561;29;20045;-88
2023/12/27 18:18:57;;;;;;;14.83;4.80;;;7.20;99.90;;;;;;4884258;29;20048;-88
2023/12/27 18:21:24;;;;;;;13.77;4.73;;;7.30;99.90;;;;;;4902097;29;20060;-88
2023/12/27 18:23:52;;;;;;;11.80;4.57;;;8.50;99.90;;;;;;4883886;29;20048;-90
2023/12/27 18:26:19;;;;;;;11.60;4.57;;;7.30;99.90;;;;;;4880741;29;20144;-89
2023/12/27 18:28:44;;;;;;;11.77;4.70;;;7.30;99.90;;;;;;4894857;29;20293;-89
2023/12/27 18:31:34;;;;;;;13.40;4.77;;;8.10;99.90;;;;;;4880747;29;20045;-90
2023/12/27 18:33:59;;;;;;;16.00;5.20;;;7.30;99.90;;;;;;4902019;29;20081;-89
2023/12/27 18:36:26;;;;;;;11.47;4.70;;;8.40;99.90;;;;;;4881021;29;20048;-90
2023/12/27 18:38:51;;;;;;;13.67;4.57;;;8.20;99.90;;;;;;4897885;29;20049;-90
2023/12/27 18:41:18;;;;;;;11.67;4.10;;;8.00;99.90;;;;;;4876896;29;20135;-90
2023/12/27 18:43:43;;;;;;;14.63;4.40;;;7.20;99.90;;;;;;4884536;29;20477;-89
2023/12/27 18:46:18;;;;;;;14.73;4.43;;;7.10;99.90;;;;;;4884965;29;20055;-89
2023/12/27 18:48:53;;;;;;;11.23;4.50;;;7.20;99.90;;;;;;4867616;29;20044;-89
2023/12/27 18:51:19;;;;;;;11.33;4.77;;;8.40;99.90;;;;;;4880132;29;20118;-90
2023/12/27 18:53:54;;;;;;;12.33;4.30;;;7.20;99.90;;;;;;4882226;29;20045;-90
2023/12/27 18:56:19;;;;;;;13.07;4.33;;;6.80;99.90;;;;;;4881613;29;20573;-90
2023/12/27 18:58:54;;;;;;;14.07;4.63;;;6.80;99.90;;;;;;4882602;29;20131;-90
2023/12/27 19:01:23;;;;;;;16.53;4.67;;;6.90;99.90;;;;;;4883669;29;20112;-89
2023/12/27 19:04:06;;;;;;;12.70;4.40;;;8.10;99.90;;;;;;4879779;29;20041;-89
2023/12/27 19:06:32;;;;;;;11.63;4.05;;;7.10;99.90;;;;;;4880717;29;20045;-89
2023/12/27 19:09:13;;;;;;;13.83;4.37;;;6.90;99.90;;;;;;4881639;29;20052;-90
2023/12/27 19:15:18;;;;;;;12.03;4.40;;;6.20;99.90;;;;;;4790516;29;20082;-89
2023/12/27 19:17:52;;;;;;;9.83;4.27;;;7.00;99.90;;;;;;4806901;29;20046;-89
2023/12/27 19:20:17;;;;;;;10.47;4.23;;;7.80;99.90;;;;;;4809077;29;20091;-89
2023/12/27 19:22:55;;;;;;;10.97;3.97;;;7.70;99.90;;;;;;4807429;29;20046;-90
2023/12/27 19:25:34;;;;;;;10.93;3.87;;;8.40;99.90;;;;;;4833021;29;20094;-90
2023/12/27 19:27:59;;;;;;;10.47;3.63;;;8.70;99.90;;;;;;4881641;29;20044;-90
2023/12/27 19:30:27;;;;;;;11.13;3.83;;;8.50;99.90;;;;;;4880000;29;20041;-89
2023/12/27 19:32:52;;;;;;;12.60;3.33;;;7.00;99.90;;;;;;4882881;29;20044;-90
2023/12/27 19:35:32;;;;;;;11.50;3.30;;;7.40;99.90;;;;;;4881193;29;20041;-90
2023/12/27 19:37:58;;;;;;;11.90;3.50;;;6.60;99.90;;;;;;4875846;29;20087;-90
2023/12/27 19:40:35;;;;;;;12.10;3.57;;;7.00;99.90;;;;;;4874305;29;20037;-90
2023/12/27 19:43:01;;;;;;;10.53;3.47;;;9.00;99.90;;;;;;4878326;29;20053;-89
2023/12/27 19:45:26;;;;;;;11.70;3.20;;;8.50;99.90;;;;;;4880332;29;20127;-89
2023/12/27 19:47:52;;;;;;;8.57;3.10;;;7.40;99.90;;;;;;4884043;29;20461;-90
2023/12/27 19:50:18;;;;;;;10.13;2.60;;;7.40;99.90;;;;;;4878946;29;20040;-89
2023/12/27 19:52:45;;;;;;;9.73;3.23;;;7.50;99.90;;;;;;4880151;29;20511;-89
2023/12/27 19:55:26;;;;;;;11.33;2.80;;;7.80;99.90;;;;;;4880102;29;20068;-89
2023/12/27 19:57:55;;;;;;;8.40;2.53;;;9.10;99.90;;;;;;4878175;29;20049;-90
2023/12/27 20:00:32;;;;;;;8.57;2.40;;;9.20;99.90;;;;;;4873266;29;20047;-91
2023/12/27 20:03:34;;;;;;;10.07;3.37;;;7.50;99.90;;;;;;4865855;29;20417;-92
2023/12/27 20:06:03;;;;;;;9.53;3.00;;;8.90;99.90;;;;;;4881953;29;20081;-89
2023/12/27 20:08:31;;;;;;;7.83;2.40;;;6.60;99.90;;;;;;4882053;29;20048;-90
2023/12/27 20:10:57;;;;;;;10.33;2.87;;;6.80;99.90;;;;;;4891531;29;20051;-89
2023/12/27 20:13:55;;;;;;;7.70;2.60;;;8.80;99.90;;;;;;4877693;29;20057;-89
2023/12/27 20:16:39;;;;;;;9.97;2.77;;;7.70;99.90;;;;;;4902620;29;20512;-90
2023/12/27 20:19:05;;;;;;;8.40;2.70;;;7.60;99.90;;;;;;4880315;29;20127;-92
2023/12/27 20:21:32;;;;;;;9.30;2.60;;;9.10;99.90;;;;;;4881460;29;20040;-92
2023/12/27 20:23:58;;;;;;;10.37;2.77;;;9.10;99.90;;;;;;4885085;29;20210;-92
2023/12/27 20:26:24;;;;;;;7.30;2.30;;;8.30;99.90;;;;;;4897752;29;20575;-93
2023/12/27 20:28:50;;;;;;;7.77;2.60;;;8.80;99.90;;;;;;4882648;29;20056;-94
2023/12/27 20:31:16;;;;;;;9.47;2.17;;;7.90;99.90;;;;;;4884276;29;20043;-93
2023/12/27 20:33:53;;;;;;;9.27;2.40;;;8.30;99.90;;;;;;4898885;29;20047;-93
2023/12/27 20:36:21;;;;;;;6.53;2.20;;;8.10;99.90;;;;;;4879316;29;20044;-92
2023/12/27 20:38:47;;;;;;;8.17;2.97;;;8.30;99.90;;;;;;4881454;29;20055;-92
2023/12/27 20:41:12;;;;;;;7.20;2.63;;;9.60;99.90;;;;;;4880083;29;20044;-92
2023/12/27 20:43:47;;;;;;;8.07;2.30;;;9.60;99.90;;;;;;4880929;29;20063;-92
2023/12/27 20:46:13;;;;;;;10.25;2.60;;;9.50;99.90;;;;;;4882226;29;20048;-93
2023/12/27 20:48:52;;;;;;;7.23;2.63;;;8.50;99.90;;;;;;4880477;29;20041;-92
2023/12/27 20:51:35;;;;;;;9.73;2.57;;;8.40;99.90;;;;;;4879789;29;20493;-93
2023/12/27 20:54:22;;;;;;;6.90;2.30;;;9.80;99.90;;;;;;4881185;29;20044;-93
2023/12/27 20:57:00;;;;;;;8.13;2.27;;;10.00;99.90;;;;;;4879637;29;20053;-93
2023/12/27 20:59:44;;;;;;;8.13;2.40;;;9.00;99.90;;;;;;4880803;29;20051;-94
2023/12/27 21:02:16;;;;;;;9.60;2.30;;;9.30;99.90;;;;;;4879105;29;20088;-93
2023/12/27 21:04:48;;;;;;;8.25;2.20;;;9.90;99.90;;;;;;4880932;29;20128;-91
2023/12/27 21:07:14;;;;;;;7.63;2.13;;;9.30;99.90;;;;;;4880488;29;20056;-91
2023/12/27 21:09:39;;;;;;;8.77;2.50;;;10.10;99.90;;;;;;4880671;29;20052;-90
2023/12/27 21:12:11;;;;;;;8.67;2.53;;;9.50;99.90;;;;;;4895317;29;20040;-93
2023/12/27 21:14:37;;;;;;;7.43;2.23;;;9.10;99.90;;;;;;4901823;29;20064;-91
2023/12/27 21:17:03;;;;;;;8.43;2.53;;;8.00;99.90;;;;;;4902580;29;20043;-91
2023/12/27 21:19:30;;;;;;;8.40;2.53;;;8.00;99.90;;;;;;4882237;29;20045;-94
2023/12/27 21:22:05;;;;;;;7.47;2.50;;;7.30;99.90;;;;;;4883422;29;20064;-91
2023/12/27 21:24:31;;;;;;;6.93;2.30;;;9.10;99.90;;;;;;4880078;29;20085;-92
2023/12/27 21:26:56;;;;;;;8.13;2.47;;;9.30;99.90;;;;;;4880118;29;20513;-92
2023/12/27 21:29:30;;;;;;;8.10;2.70;;;9.10;99.90;;;;;;4882072;29;20169;-94
2023/12/27 21:32:01;;;;;;;7.47;2.53;;;9.00;99.90;;;;;;4877937;29;20049;-91
2023/12/27 21:34:26;;;;;;;8.00;2.63;;;7.50;99.90;;;;;;4880404;29;20044;-91
2023/12/27 21:37:01;;;;;;;9.17;2.50;;;8.40;99.90;;;;;;4881404;29;20052;-93
2023/12/27 21:39:27;;;;;;;10.37;2.83;;;7.80;99.90;;;;;;4884803;29;20101;-92
2023/12/27 21:41:54;;;;;;;7.63;2.40;;;6.60;99.90;;;;;;4885611;29;20052;-91
2023/12/27 21:44:20;;;;;;;8.30;2.50;;;7.90;99.90;;;;;;4887285;29;20051;-92
2023/12/27 21:46:47;;;;;;;7.27;2.50;;;8.80;99.90;;;;;;4893893;29;20104;-92
2023/12/27 21:49:13;;;;;;;8.63;2.60;;;8.80;99.90;;;;;;4891242;29;20111;-91
2023/12/27 21:51:39;;;;;;;9.23;3.00;;;8.90;99.90;;;;;;4880577;29;20497;-91
2023/12/27 21:54:04;;;;;;;8.03;2.90;;;8.50;99.90;;;;;;4905873;29;20496;-91
2023/12/27 21:56:30;;;;;;;7.87;2.53;;;8.70;99.90;;;;;;4880447;29;20057;-92
2023/12/27 21:59:12;;;;;;;;;;;;;;;;;;;;;
2023/12/27 22:01:50;;;;;;;8.97;2.70;;;8.90;99.90;;;;;;4917162;29;20465;-92
2023/12/27 22:04:16;;;;;;;8.43;2.73;;;8.50;99.90;;;;;;4899486;29;20123;-92
2023/12/27 22:06:44;;;;;;;8.37;2.57;;;7.40;99.90;;;;;;4881644;29;20075;-92
2023/12/27 22:09:13;;;;;;;8.80;2.57;;;7.20;99.90;;;;;;4879365;29;20052;-91
2023/12/27 22:11:48;;;;;;;9.13;2.53;;;9.30;99.90;;;;;;4888614;29;20437;-91
2023/12/27 22:14:14;;;;;;;6.97;2.30;;;7.90;99.90;;;;;;4887813;29;20128;-90
2023/12/27 22:16:39;;;;;;;8.27;2.83;;;7.50;99.90;;;;;;4880055;29;20080;-90
2023/12/27 22:19:06;;;;;;;9.43;3.07;;;8.50;99.90;;;;;;4880423;29;20036;-90
2023/12/27 22:21:32;;;;;;;8.63;2.40;;;8.90;99.90;;;;;;4876838;29;20122;-92
2023/12/27 22:23:57;;;;;;;9.53;2.80;;;8.50;99.90;;;;;;4865610;29;20078;-93
2023/12/27 22:26:23;;;;;;;7.80;2.53;;;7.70;99.90;;;;;;4863724;29;20056;-87
2023/12/27 22:28:49;;;;;;;7.70;2.50;;;9.10;99.90;;;;;;4865704;29;20060;-91
2023/12/27 22:31:19;;;;;;;9.40;2.57;;;7.80;99.90;;;;;;4870802;29;20045;-94
2023/12/27 22:33:45;;;;;;;7.00;2.60;;;8.90;99.90;;;;;;4882163;29;20076;-93
2023/12/27 22:36:11;;;;;;;8.40;2.30;;;6.90;99.90;;;;;;4882781;29;20556;-93
2023/12/27 22:38:38;;;;;;;7.63;2.27;;;7.00;99.90;;;;;;4883390;29;20044;-92
2023/12/27 22:41:04;;;;;;;8.77;2.70;;;9.10;99.90;;;;;;4882673;29;20059;-93
2023/12/27 22:48:59;;;;;;;7.07;2.60;;;7.80;99.90;;;;;;5003590;23;20067;-92
2023/12/27 22:51:43;;;;;;;8.50;2.80;;;9.40;99.90;;;;;;4883005;29;20075;-92
2023/12/27 22:54:09;;;;;;;8.52;2.70;;;7.60;99.90;;;;;;4882471;29;20040;-91
2023/12/27 22:56:35;;;;;;;9.33;2.90;;;7.70;99.90;;;;;;4881817;29;20391;-91
2023/12/27 22:59:00;;;;;;;8.53;2.40;;;9.40;99.90;;;;;;4882634;29;20052;-90
2023/12/27 23:01:29;;;;;;;9.83;2.67;;;7.30;99.90;;;;;;4882095;29;20049;-91
2023/12/27 23:03:54;;;;;;;10.27;3.13;;;8.80;99.90;;;;;;4884935;29;20068;-91
2023/12/27 23:06:20;;;;;;;8.77;2.83;;;8.10;99.90;;;;;;4882870;29;20056;-92
2023/12/27 23:08:46;;;;;;;8.40;2.70;;;8.40;99.90;;;;;;4882016;29;20053;-92
2023/12/27 23:11:15;;;;;;;7.50;2.70;;;7.80;99.90;;;;;;4879133;29;20059;-90
2023/12/27 23:13:49;;;;;;;7.47;2.80;;;9.50;99.90;;;;;;4864637;29;20482;-92
2023/12/27 23:16:24;;;;;;;8.47;2.60;;;9.60;99.90;;;;;;4863068;29;20041;-92
2023/12/27 23:18:50;;;;;;;7.63;2.50;;;8.90;99.90;;;;;;4864530;29;20049;-92
2023/12/27 23:21:15;;;;;;;8.03;2.60;;;7.80;99.90;;;;;;4870496;29;20040;-92
2023/12/27 23:23:41;;;;;;;7.77;2.50;;;9.30;99.90;;;;;;4879339;29;20517;-92
2023/12/27 23:26:07;;;;;;;10.13;2.73;;;9.30;99.90;;;;;;4864218;29;20052;-92
2023/12/27 23:28:35;;;;;;;8.50;2.77;;;7.80;99.90;;;;;;4864904;29;20049;-91
2023/12/27 23:31:00;;;;;;;8.20;2.70;;;9.00;99.90;;;;;;4863885;29;20056;-92
2023/12/27 23:33:26;;;;;;;7.37;2.67;;;9.20;99.90;;;;;;4864175;29;20056;-92
2023/12/27 23:35:52;;;;;;;8.30;2.53;;;8.00;99.90;;;;;;4863852;29;20041;-92
2023/12/27 23:38:21;;;;;;;7.70;2.93;;;8.80;99.90;;;;;;4863620;29;20395;-91
2023/12/27 23:40:46;;;;;;;7.33;2.60;;;9.10;99.90;;;;;;4864054;29;20049;-93
2023/12/27 23:43:24;;;;;;;7.73;2.60;;;9.30;99.90;;;;;;4863881;29;20041;-92
2023/12/27 23:45:50;;;;;;;8.80;3.07;;;9.50;99.90;;;;;;4863594;29;20394;-93
2023/12/27 23:48:22;;;;;;;11.10;4.57;;;9.70;99.90;;;;;;4863573;29;20064;-92
2023/12/27 23:50:48;;;;;;;7.90;3.20;;;7.20;99.90;;;;;;4865747;29;20049;-92
2023/12/27 23:53:22;;;;;;;8.00;2.90;;;8.10;99.90;;;;;;4864434;29;20170;-92
2023/12/27 23:55:48;;;;;;;8.23;2.70;;;9.50;99.90;;;;;;4864504;29;20059;-93
2023/12/27 23:58:26;;;;;;;8.67;2.50;;;9.30;99.90;;;;;;4867729;29;20049;-93
